Time;durP1;ratioP1;P1;durP2;ratioP2;P2;SDS_P1;SDS_P2;PMS_P1;PMS_P2;Temp;Humidity;BMP_temperature;BMP_pressure;BME280_temperature;BME280_humidity;BME280_pressure;Samples;Min_cycle;Max_cycle;Signal;HPM_P1;HPM_P2
2021/12/12 00:01:53;;;;;;;35.42;13.43;;;;;;;5.29;100.00;101993.16;5095855;28;20024;-72
2021/12/12 00:04:22;;;;;;;40.42;11.65;;;;;;;5.29;100.00;101993.16;5080697;28;20024;-73
2021/12/12 00:06:55;;;;;;;38.92;12.38;;;;;;;5.28;100.00;102003.50;5095728;28;20012;-73
2021/12/12 00:09:30;;;;;;;36.42;13.13;;;;;;;5.27;100.00;101994.75;5106541;28;20031;-72
2021/12/12 00:11:59;;;;;;;38.22;11.75;;;;;;;5.28;100.00;101980.91;5093468;28;20031;-72
2021/12/12 00:14:32;;;;;;;40.58;12.70;;;;;;;5.28;100.00;101986.13;5097768;28;20459;-72
2021/12/12 00:16:59;;;;;;;36.35;11.65;;;;;;;5.26;100.00;101974.69;5098816;28;20032;-73
2021/12/12 00:19:27;;;;;;;36.30;12.55;;;;;;;5.26;100.00;101972.06;5110269;28;20459;-73
2021/12/12 00:21:56;;;;;;;34.13;11.75;;;;;;;5.27;100.00;101971.28;5080733;28;20031;-72
2021/12/12 00:24:21;;;;;;;28.75;12.13;;;;;;;5.27;100.00;101958.22;5109823;28;20106;-73
2021/12/12 00:26:50;;;;;;;30.23;12.02;;;;;;;5.28;100.00;101954.81;5109533;28;20162;-73
2021/12/12 00:29:17;;;;;;;34.83;11.55;;;;;;;5.29;100.00;101967.06;5088948;28;20030;-72
2021/12/12 00:31:46;;;;;;;39.50;12.50;;;;;;;5.31;100.00;101956.69;5106140;28;20094;-73
2021/12/12 00:34:12;;;;;;;36.22;11.60;;;;;;;5.30;100.00;101954.91;5111515;28;20094;-73
2021/12/12 00:36:40;;;;;;;41.00;11.90;;;;;;;5.29;100.00;101950.47;5099905;28;20039;-73
2021/12/12 00:39:19;;;;;;;39.10;11.90;;;;;;;5.29;100.00;101948.78;5090724;28;20100;-73
2021/12/12 00:41:59;;;;;;;36.78;11.93;;;;;;;5.32;100.00;101954.16;5107595;28;20449;-73
2021/12/12 00:44:26;;;;;;;32.00;11.68;;;;;;;5.32;100.00;101946.34;5090232;28;20115;-72
2021/12/12 00:46:54;;;;;;;35.22;11.68;;;;;;;5.31;100.00;101944.53;5106862;28;20039;-73
2021/12/12 00:49:20;;;;;;;25.63;11.00;;;;;;;5.32;100.00;101948.94;5088594;28;20467;-73
2021/12/12 00:51:46;;;;;;;27.52;11.35;;;;;;;5.34;100.00;101951.66;5097682;28;20107;-73
2021/12/12 00:54:13;;;;;;;38.55;10.88;;;;;;;5.37;100.00;101946.59;5114087;28;20034;-72
2021/12/12 00:56:40;;;;;;;35.63;10.95;;;;;;;5.37;100.00;101955.34;5110049;28;20031;-73
2021/12/12 00:59:10;;;;;;;40.22;11.10;;;;;;;5.40;100.00;101952.88;5082820;28;20050;-72
2021/12/12 01:01:47;;;;;;;29.70;10.30;;;;;;;5.45;100.00;101939.19;5094351;28;20019;-74
2021/12/12 01:04:21;;;;;;;35.22;10.95;;;;;;;5.45;100.00;101931.34;5088384;28;20110;-73
2021/12/12 01:06:49;;;;;;;31.60;10.48;;;;;;;5.43;100.00;101936.50;5106853;28;20031;-73
2021/12/12 01:09:20;;;;;;;30.55;11.23;;;;;;;5.45;100.00;101931.34;5091628;28;20549;-73
2021/12/12 01:11:50;;;;;;;36.95;10.82;;;;;;;5.46;100.00;101933.16;5102241;28;20031;-72
2021/12/12 01:14:20;;;;;;;27.65;9.73;;;;;;;5.47;100.00;101934.97;5103590;28;20035;-72
2021/12/12 01:16:54;;;;;;;27.13;9.68;;;;;;;5.46;100.00;101935.78;5089451;28;20059;-72
2021/12/12 01:19:30;;;;;;;30.17;10.77;;;;;;;5.45;100.00;101926.13;5105111;28;20027;-72
2021/12/12 01:22:01;;;;;;;32.67;10.60;;;;;;;5.46;100.00;101928.81;5093832;28;20130;-73
2021/12/12 01:24:32;;;;;;;25.85;9.25;;;;;;;5.49;100.00;101925.50;5108196;28;20037;-73
2021/12/12 01:26:59;;;;;;;27.92;10.38;;;;;;;5.48;100.00;101931.50;5085244;28;20028;-74
2021/12/12 01:29:25;;;;;;;24.38;9.35;;;;;;;5.46;100.00;101931.44;5080872;28;20124;-72
2021/12/12 01:31:55;;;;;;;24.05;9.13;;;;;;;5.49;100.00;101935.94;5083680;28;20019;-72
2021/12/12 01:34:28;;;;;;;30.85;9.57;;;;;;;5.53;100.00;101948.34;5098325;28;20040;-73
2021/12/12 01:39:32;;;;;;;29.42;9.70;;;;;;;5.51;100.00;101935.19;5102374;28;20048;-73
2021/12/12 01:42:02;;;;;;;34.55;13.60;;;;;;;5.51;100.00;101949.97;5102712;28;20035;-72
2021/12/12 01:44:30;;;;;;;31.73;10.55;;;;;;;5.50;100.00;101937.72;5108436;28;20089;-72
2021/12/12 01:47:18;;;;;;;31.77;11.00;;;;;;;5.51;100.00;101937.81;5086807;28;20031;-74
2021/12/12 01:49:48;;;;;;;29.80;10.18;;;;;;;5.49;100.00;101928.97;5099977;28;20035;-73
2021/12/12 01:52:20;;;;;;;27.55;10.88;;;;;;;5.50;100.00;101925.56;5095569;28;20107;-73
2021/12/12 01:54:48;;;;;;;30.35;10.80;;;;;;;5.48;100.00;101926.28;5104301;28;20050;-73
2021/12/12 01:57:25;;;;;;;23.98;10.27;;;;;;;5.50;100.00;101919.47;5084834;28;20119;-73
2021/12/12 01:59:52;;;;;;;29.48;10.45;;;;;;;5.51;100.00;101918.66;5096143;28;20024;-73
2021/12/12 02:02:25;;;;;;;28.60;10.77;;;;;;;5.50;100.00;101919.47;5102998;28;20084;-74
2021/12/12 02:04:58;;;;;;;27.83;11.05;;;;;;;5.49;100.00;101912.44;5083178;28;20471;-73
2021/12/12 02:07:36;;;;;;;25.38;10.68;;;;;;;5.51;100.00;101913.44;5097809;28;20066;-73
2021/12/12 02:10:10;;;;;;;32.42;11.38;;;;;;;5.52;100.00;101915.19;5099087;28;20028;-73
2021/12/12 02:12:36;;;;;;;26.00;11.20;;;;;;;5.48;100.00;101922.00;5099054;28;20115;-73
2021/12/12 02:15:05;;;;;;;34.22;11.77;;;;;;;5.50;100.00;101922.06;5105821;28;20108;-73
2021/12/12 02:17:39;;;;;;;26.98;12.48;;;;;;;5.52;100.00;101916.13;5101066;28;20028;-73
2021/12/12 02:20:28;;;;;;;;;;;;;;;5.52;100.00;101926.56;5112858;28;20027;-72
2021/12/12 02:23:10;;;;;;;26.67;10.02;;;;;;;5.55;100.00;101923.22;5099802;28;19912;-72
2021/12/12 02:36:40;;;;;;;26.38;11.40;;;;;;;5.59;100.00;101909.53;5101601;28;20046;-73
2021/12/12 02:39:15;;;;;;;24.33;13.07;;;;;;;5.61;100.00;101917.44;5109219;27;20028;-73
2021/12/12 02:41:48;;;;;;;30.60;13.90;;;;;;;5.61;100.00;101897.44;5098871;28;20081;-73
2021/12/12 02:44:16;;;;;;;27.17;13.00;;;;;;;5.63;100.00;101906.25;5101118;28;20043;-73
2021/12/12 02:46:43;;;;;;;26.73;13.98;;;;;;;5.67;100.00;101899.47;5103831;28;20039;-73
2021/12/12 02:49:25;;;;;;;33.95;14.07;;;;;;;5.68;100.00;101899.56;5076012;28;20498;-72
2021/12/12 02:51:52;;;;;;;29.80;14.25;;;;;;;5.65;100.00;101904.63;5079219;28;20085;-72
2021/12/12 02:54:17;;;;;;;34.83;15.13;;;;;;;5.66;100.00;101906.41;5100987;28;20108;-73
2021/12/12 02:56:47;;;;;;;35.05;16.02;;;;;;;5.70;100.00;101899.66;5090194;28;20110;-73
2021/12/12 02:59:20;;;;;;;29.92;16.10;;;;;;;5.70;100.00;101910.09;5097078;28;20050;-72
2021/12/12 03:01:55;;;;;;;30.88;15.98;;;;;;;5.69;100.00;101898.75;5084950;28;20058;-73
2021/12/12 03:04:23;;;;;;;35.50;17.00;;;;;;;5.71;100.00;101899.72;5098411;28;20452;-73
2021/12/12 03:06:49;;;;;;;28.50;16.40;;;;;;;5.73;100.00;101897.19;5075143;28;20024;-73
2021/12/12 03:09:20;;;;;;;39.33;17.67;;;;;;;5.70;100.00;101905.75;5102949;28;20089;-73
2021/12/12 03:11:48;;;;;;;32.28;17.75;;;;;;;5.74;100.00;101897.28;5095598;28;20100;-73
2021/12/12 03:14:16;;;;;;;39.72;19.35;;;;;;;5.76;100.00;101893.84;5085313;28;20124;-73
2021/12/12 03:16:42;;;;;;;35.08;19.50;;;;;;;5.81;100.00;101910.69;5107133;28;20037;-73
2021/12/12 03:19:08;;;;;;;42.05;20.90;;;;;;;5.82;100.00;101894.16;5090250;28;20522;-73
2021/12/12 03:21:42;;;;;;;50.67;20.20;;;;;;;5.80;100.00;101886.25;5090460;28;20039;-73
2021/12/12 03:24:22;;;;;;;48.78;20.73;;;;;;;5.83;100.00;101880.28;5079039;28;20024;-73
2021/12/12 03:26:51;;;;;;;42.78;19.92;;;;;;;5.88;100.00;101884.06;5106327;28;20114;-73
2021/12/12 03:29:18;;;;;;;42.42;21.38;;;;;;;5.89;100.00;101872.78;5104058;28;20472;-72
2021/12/12 03:31:49;;;;;;;37.75;19.35;;;;;;;5.95;100.00;101878.31;5096340;28;20064;-73
2021/12/12 03:34:18;;;;;;;44.58;22.40;;;;;;;5.96;100.00;101877.50;5111277;28;20028;-73
2021/12/12 03:36:45;;;;;;;52.38;23.10;;;;;;;5.99;100.00;101888.16;5086641;28;20024;-73
2021/12/12 03:39:18;;;;;;;47.15;22.17;;;;;;;6.03;100.00;101879.66;5105430;28;20068;-73
2021/12/12 03:41:44;;;;;;;44.03;23.33;;;;;;;6.07;100.00;101881.59;5081996;28;20038;-73
2021/12/12 03:44:14;;;;;;;52.10;22.58;;;;;;;6.08;100.00;101887.75;5086887;28;20044;-72
2021/12/12 03:46:41;;;;;;;46.50;23.63;;;;;;;6.12;100.00;101897.53;5105544;28;20074;-72
2021/12/12 03:49:08;;;;;;;47.33;24.38;;;;;;;6.13;100.00;101894.09;5083515;28;20030;-72
2021/12/12 03:51:35;;;;;;;49.55;24.10;;;;;;;6.19;100.00;101909.19;5085361;28;20028;-73
2021/12/12 03:54:01;;;;;;;54.05;25.75;;;;;;;6.21;100.00;101908.47;5104413;28;20031;-73
2021/12/12 03:56:27;;;;;;;54.85;25.23;;;;;;;6.30;100.00;101901.91;5079042;28;20031;-73
2021/12/12 03:58:53;;;;;;;57.80;23.65;;;;;;;6.30;100.00;101896.69;5101724;28;20027;-72
2021/12/12 04:01:34;;;;;;;57.67;25.10;;;;;;;6.33;100.00;101899.44;5103968;28;20372;-74
2021/12/12 04:04:08;;;;;;;55.28;25.13;;;;;;;6.36;100.00;101897.91;5106860;28;20032;-73
2021/12/12 04:06:34;;;;;;;59.10;25.80;;;;;;;6.40;100.00;101894.63;5103206;28;20028;-73
2021/12/12 04:09:03;;;;;;;56.53;27.13;;;;;;;6.39;100.00;101902.38;5083293;28;20024;-73
2021/12/12 04:11:38;;;;;;;60.60;26.80;;;;;;;6.44;100.00;101900.00;5113360;28;20359;-73
2021/12/12 04:14:05;;;;;;;53.90;26.92;;;;;;;6.47;100.00;101901.06;5108778;28;20031;-72
2021/12/12 04:16:33;;;;;;;54.20;28.02;;;;;;;6.48;100.00;101894.09;5079067;28;20024;-72
2021/12/12 04:18:59;;;;;;;66.10;29.40;;;;;;;6.46;100.00;101893.09;5106999;28;20077;-72
2021/12/12 04:21:26;;;;;;;54.15;27.45;;;;;;;6.49;100.00;101885.44;5083270;28;20035;-72
2021/12/12 04:23:53;;;;;;;56.45;28.40;;;;;;;6.47;100.00;101892.28;5104756;28;20061;-72
2021/12/12 04:26:40;;;;;;;58.22;28.48;;;;;;;6.49;100.00;101877.59;5087015;28;20053;-73
2021/12/12 04:29:16;;;;;;;56.97;28.50;;;;;;;6.52;100.00;101888.19;5087022;28;20019;-72
2021/12/12 04:31:48;;;;;;;62.45;28.42;;;;;;;6.51;100.00;101900.38;5087007;28;20118;-73
2021/12/12 04:34:14;;;;;;;67.80;30.95;;;;;;;6.52;100.00;101890.81;5099277;28;20031;-73
2021/12/12 04:36:44;;;;;;;76.65;31.35;;;;;;;6.52;100.00;101882.97;5083096;28;20028;-73
2021/12/12 04:39:14;;;;;;;67.80;30.75;;;;;;;6.58;100.00;101893.75;5102839;28;20032;-73
2021/12/12 04:41:46;;;;;;;69.75;32.05;;;;;;;6.58;100.00;101888.53;5081927;28;20065;-72
2021/12/12 04:44:12;;;;;;;80.32;34.47;;;;;;;6.58;100.00;101896.38;5084057;28;20428;-72
2021/12/12 04:52:23;;;;;;;75.93;32.33;;;;;;;6.68;100.00;101901.22;5105101;28;20038;-73
2021/12/12 04:54:57;;;;;;;74.07;31.50;;;;;;;6.69;100.00;101910.84;5090689;28;20028;-72
2021/12/12 04:57:28;;;;;;;78.95;32.83;;;;;;;6.70;100.00;101907.44;5082360;28;20039;-73
2021/12/12 05:00:13;;;;;;;82.47;33.42;;;;;;;6.73;100.00;101907.56;5096021;28;20546;-73
2021/12/12 05:03:07;;;;;;;81.10;33.58;;;;;;;6.77;100.00;101916.47;5103095;28;20119;-72
2021/12/12 05:05:39;;;;;;;82.28;32.72;;;;;;;6.77;100.00;101911.25;5109823;28;20077;-73
2021/12/12 05:08:05;;;;;;;81.13;34.47;;;;;;;6.77;100.00;101907.72;5083037;28;20030;-72
2021/12/12 05:10:42;;;;;;;84.45;31.85;;;;;;;6.75;100.00;101907.66;5101879;28;20020;-72
2021/12/12 05:13:19;;;;;;;98.07;34.90;;;;;;;6.80;100.00;101905.28;5101575;28;20031;-73
2021/12/12 05:15:49;;;;;;;91.82;32.65;;;;;;;6.82;100.00;101908.84;5085351;28;20093;-72
2021/12/12 05:18:27;;;;;;;95.40;33.55;;;;;;;6.87;100.00;101917.81;5085352;28;20034;-72
2021/12/12 05:20:59;;;;;;;85.15;33.72;;;;;;;6.88;100.00;101914.38;5103402;28;20023;-72
2021/12/12 05:23:28;;;;;;;78.15;32.92;;;;;;;6.89;100.00;101908.31;5088333;28;20146;-73
2021/12/12 05:26:05;;;;;;;82.25;34.08;;;;;;;6.89;100.00;101927.53;5109281;28;20057;-73
2021/12/12 05:28:34;;;;;;;96.28;35.13;;;;;;;6.89;100.00;101927.53;5087371;28;20039;-73
2021/12/12 05:31:01;;;;;;;85.72;34.13;;;;;;;6.92;100.00;101922.44;5078461;28;20115;-73
2021/12/12 05:33:29;;;;;;;89.55;34.90;;;;;;;6.91;100.00;101919.75;5102592;28;20092;-73
2021/12/12 05:35:55;;;;;;;98.13;34.80;;;;;;;6.96;100.00;101926.13;5086897;28;20120;-73
2021/12/12 05:38:23;;;;;;;103.05;36.58;;;;;;;6.95;100.00;101929.56;5109821;28;20474;-73
2021/12/12 05:40:48;;;;;;;98.47;36.90;;;;;;;6.96;100.00;101923.50;5080900;28;20028;-73
2021/12/12 05:43:17;;;;;;;99.45;36.10;;;;;;;6.99;100.00;101928.88;5105914;28;20090;-73
2021/12/12 05:45:44;;;;;;;102.25;36.15;;;;;;;7.02;100.00;101929.03;5099338;28;20125;-72
2021/12/12 05:48:10;;;;;;;101.78;35.97;;;;;;;7.09;100.00;101924.97;5086415;28;20127;-74
2021/12/12 05:50:38;;;;;;;104.78;37.78;;;;;;;7.07;100.00;101930.16;5101664;28;20102;-74
2021/12/12 05:53:04;;;;;;;107.07;38.00;;;;;;;7.08;100.00;101924.09;5082808;28;20089;-74
2021/12/12 05:55:32;;;;;;;106.80;38.72;;;;;;;7.11;100.00;101939.06;5087901;28;20023;-72
2021/12/12 05:58:00;;;;;;;113.75;38.97;;;;;;;7.11;100.00;101946.91;5098232;28;20060;-72
2021/12/12 06:00:48;;;;;;;113.10;39.60;;;;;;;7.15;100.00;101950.56;5095711;28;20047;-72
2021/12/12 06:03:22;;;;;;;106.28;39.75;;;;;;;7.14;100.00;101947.06;5093493;28;20069;-72
2021/12/12 06:05:49;;;;;;;109.25;40.33;;;;;;;7.15;100.00;101941.00;5102932;28;20080;-72
2021/12/12 06:08:15;;;;;;;104.47;38.17;;;;;;;7.17;100.00;101952.41;5102923;28;20180;-72
2021/12/12 06:10:43;;;;;;;101.78;39.15;;;;;;;7.19;100.00;101947.25;5100490;28;20486;-72
2021/12/12 06:13:16;;;;;;;119.22;38.40;;;;;;;7.17;100.00;101948.91;5101498;28;20027;-73
2021/12/12 06:15:45;;;;;;;113.18;41.58;;;;;;;7.22;100.00;101943.06;5087367;28;20034;-72
2021/12/12 06:18:12;;;;;;;117.68;40.08;;;;;;;7.23;100.00;101947.50;5080123;28;20028;-73
2021/12/12 06:20:40;;;;;;;116.38;40.03;;;;;;;7.29;100.00;101952.13;5097336;28;20092;-73
2021/12/12 06:23:08;;;;;;;133.40;41.35;;;;;;;7.30;100.00;101959.16;5101506;28;20083;-72
2021/12/12 06:25:36;;;;;;;123.88;39.47;;;;;;;7.35;100.00;101960.28;5096182;28;20441;-73
2021/12/12 06:28:10;;;;;;;114.45;38.53;;;;;;;7.40;100.00;101964.00;5086774;28;20476;-73
2021/12/12 06:30:35;;;;;;;;;;;;;;;7.42;100.00;101951.88;5083026;28;20041;-73
2021/12/12 06:33:00;;;;;;;110.72;36.47;;;;;;;7.38;100.00;101957.81;5106062;28;19912;-73
2021/12/12 06:35:26;;;;;;;119.15;38.20;;;;;;;7.43;100.00;101952.78;5069000;28;20045;-73
2021/12/12 06:37:52;;;;;;;120.53;39.38;;;;;;;7.43;100.00;101968.47;5058730;28;20047;-73
2021/12/12 06:40:21;;;;;;;118.80;37.85;;;;;;;7.42;100.00;101962.38;5058038;28;20032;-72
2021/12/12 06:42:49;;;;;;;119.65;39.38;;;;;;;7.42;100.00;101957.13;5059315;28;20595;-73
2021/12/12 06:45:17;;;;;;;132.07;40.10;;;;;;;7.47;100.00;101959.06;5062499;28;20036;-73
2021/12/12 06:47:43;;;;;;;119.10;39.88;;;;;;;7.51;100.00;101963.63;5059716;28;20013;-73
2021/12/12 06:50:09;;;;;;;134.55;39.85;;;;;;;7.51;100.00;101956.66;5058892;28;20028;-74
2021/12/12 06:52:36;;;;;;;121.75;38.67;;;;;;;7.51;100.00;101964.50;5064330;28;20031;-73
2021/12/12 06:55:07;;;;;;;129.13;37.30;;;;;;;7.53;100.00;101965.50;5060537;28;20047;-73
2021/12/12 06:57:33;;;;;;;133.80;39.42;;;;;;;7.57;100.00;101971.78;5057372;28;20075;-72
2021/12/12 06:59:59;;;;;;;120.35;38.47;;;;;;;7.61;100.00;101968.47;5056965;28;20387;-73
2021/12/12 07:02:25;;;;;;;129.00;39.47;;;;;;;7.63;100.00;101974.66;5061097;28;20043;-73
2021/12/12 07:04:53;;;;;;;120.22;36.35;;;;;;;7.62;100.00;101969.38;5052422;28;20472;-72
2021/12/12 07:07:19;;;;;;;141.43;40.35;;;;;;;7.62;100.00;101978.09;5052840;28;20032;-70
2021/12/12 07:09:47;;;;;;;127.80;39.47;;;;;;;7.63;100.00;101972.06;5058229;28;20040;-71
2021/12/12 07:12:15;;;;;;;130.40;39.63;;;;;;;7.67;100.00;101976.59;5059419;28;20548;-71
2021/12/12 07:14:41;;;;;;;135.40;40.05;;;;;;;7.67;100.00;101971.38;5056654;28;20036;-70
2021/12/12 07:17:09;;;;;;;139.65;42.55;;;;;;;7.69;100.00;101977.59;5059491;28;20025;-70
2021/12/12 07:19:37;;;;;;;116.13;39.10;;;;;;;7.70;100.00;101989.84;5060297;28;20499;-71
2021/12/12 07:22:03;;;;;;;155.18;43.85;;;;;;;7.73;100.00;101986.47;5064217;28;20112;-72
2021/12/12 07:24:30;;;;;;;122.90;42.70;;;;;;;7.74;100.00;101986.53;5064553;28;20053;-72
2021/12/12 07:27:01;;;;;;;134.23;42.97;;;;;;;7.73;100.00;101984.75;5057619;28;20104;-72
2021/12/12 07:29:28;;;;;;;134.55;40.22;;;;;;;7.76;100.00;101984.91;5062118;28;20142;-72
2021/12/12 07:31:56;;;;;;;138.15;40.88;;;;;;;7.76;100.00;101987.53;5062594;28;20350;-72
2021/12/12 07:34:22;;;;;;;134.40;39.80;;;;;;;7.79;100.00;101983.25;5059496;28;20035;-71
2021/12/12 07:36:51;;;;;;;131.48;41.67;;;;;;;7.85;100.00;101988.78;5097133;28;20410;-72
2021/12/12 07:39:18;;;;;;;135.73;41.38;;;;;;;7.83;100.00;101993.06;5098142;28;20115;-72
2021/12/12 07:41:46;;;;;;;123.20;39.17;;;;;;;7.83;100.00;101985.19;5087354;28;20034;-72
2021/12/12 07:44:15;;;;;;;150.38;42.22;;;;;;;7.84;100.00;101986.97;5105958;28;20030;-71
2021/12/12 07:46:43;;;;;;;155.90;42.50;;;;;;;7.86;100.00;101995.81;5094111;28;20111;-71
2021/12/12 07:49:08;;;;;;;122.88;38.17;;;;;;;7.87;100.00;102002.84;5102162;28;20047;-71
2021/12/12 07:51:37;;;;;;;142.48;42.50;;;;;;;7.92;100.00;102003.94;5100988;28;20063;-71
2021/12/12 07:54:04;;;;;;;130.98;40.58;;;;;;;7.93;100.00;101997.88;5105531;28;20023;-71
2021/12/12 07:56:33;;;;;;;138.73;39.75;;;;;;;7.94;100.00;102004.91;5099849;28;20073;-71
2021/12/12 07:59:00;;;;;;;146.02;39.97;;;;;;;7.98;100.00;102005.97;5081598;28;20038;-72
2021/12/12 08:01:27;;;;;;;134.18;39.83;;;;;;;7.97;100.00;102010.28;5102381;28;20099;-70
2021/12/12 08:03:56;;;;;;;144.63;42.63;;;;;;;7.99;100.00;102012.97;5096419;28;20035;-71
2021/12/12 08:06:23;;;;;;;155.75;42.10;;;;;;;8.01;100.00;102012.22;5102589;28;20020;-70
2021/12/12 08:08:49;;;;;;;146.30;40.80;;;;;;;8.02;100.00;102028.88;5098646;28;20028;-70
2021/12/12 08:11:21;;;;;;;133.35;40.03;;;;;;;8.06;100.00;102026.44;5096418;28;20444;-70
2021/12/12 08:13:48;;;;;;;130.82;38.85;;;;;;;8.06;100.00;102026.44;5100989;28;20044;-70
2021/12/12 08:16:16;;;;;;;136.73;39.83;;;;;;;8.07;100.00;102028.25;5097079;28;20050;-70
2021/12/12 08:18:44;;;;;;;130.15;41.67;;;;;;;8.08;100.00;102030.06;5100441;28;20027;-70
2021/12/12 08:21:10;;;;;;;141.68;40.13;;;;;;;8.09;100.00;102036.19;5089153;28;20120;-71
2021/12/12 08:23:38;;;;;;;138.43;38.25;;;;;;;8.14;100.00;102041.63;5108744;28;20743;-71
2021/12/12 08:26:07;;;;;;;137.68;38.70;;;;;;;8.16;100.00;102037.38;5108065;28;20026;-71
2021/12/12 08:28:34;;;;;;;129.02;38.70;;;;;;;8.18;100.00;102036.59;5087493;28;20388;-70
2021/12/12 08:31:01;;;;;;;134.45;39.05;;;;;;;8.16;100.00;102047.84;5090326;28;20076;-70
2021/12/12 08:33:28;;;;;;;122.95;36.97;;;;;;;8.18;100.00;102044.47;5080118;28;20052;-71
2021/12/12 08:35:56;;;;;;;121.68;36.97;;;;;;;8.18;100.00;102047.09;5086184;28;20140;-70
2021/12/12 08:38:22;;;;;;;125.03;35.33;;;;;;;8.22;100.00;102048.13;5113110;28;20023;-71
2021/12/12 08:40:55;;;;;;;126.45;36.22;;;;;;;8.22;100.00;102055.97;5096629;28;20016;-70
2021/12/12 08:43:24;;;;;;;125.05;35.42;;;;;;;8.24;100.00;102062.22;5099873;28;20035;-70
2021/12/12 08:45:57;;;;;;;102.63;33.55;;;;;;;8.23;100.00;102061.31;5104395;28;20034;-72
2021/12/12 08:48:25;;;;;;;96.10;31.13;;;;;;;8.32;100.00;102059.94;5109681;28;20020;-70
2021/12/12 08:50:58;;;;;;;102.60;32.33;;;;;;;8.31;100.00;102068.63;5081474;28;20107;-73
2021/12/12 08:53:24;;;;;;;101.22;30.73;;;;;;;8.33;100.00;102073.13;5098734;28;20098;-71
2021/12/12 08:55:53;;;;;;;94.65;30.35;;;;;;;8.36;100.00;102075.00;5103825;28;20383;-72
2021/12/12 08:58:25;;;;;;;88.05;28.23;;;;;;;8.40;100.00;102075.19;5100936;28;20020;-72
2021/12/12 09:00:52;;;;;;;82.60;28.27;;;;;;;8.39;100.00;102081.25;5106076;28;20028;-72
2021/12/12 09:03:49;;;;;;;97.55;28.92;;;;;;;8.43;100.00;102080.56;5096579;28;20396;-73
2021/12/12 09:06:17;;;;;;;73.60;26.05;;;;;;;8.50;100.00;102086.13;5102521;28;20483;-71
2021/12/12 09:09:00;;;;;;;70.32;25.15;;;;;;;8.50;100.00;102081.78;5097921;28;20027;-71
2021/12/12 09:11:31;;;;;;;70.07;23.65;;;;;;;8.52;100.00;102087.09;5100533;28;20035;-71
2021/12/12 09:14:11;;;;;;;59.63;22.98;;;;;;;8.52;100.00;102092.31;5108837;28;20119;-72
2021/12/12 09:16:54;;;;;;;65.03;24.60;;;;;;;8.49;100.00;102093.13;5103001;27;20027;-72
2021/12/12 09:19:26;;;;;;;65.15;22.92;;;;;;;8.57;100.00;102102.22;5092516;28;20031;-72
2021/12/12 09:22:15;;;;;;;55.92;21.65;;;;;;;8.58;100.00;102093.50;5084544;28;20379;-72
2021/12/12 09:24:50;;;;;;;53.10;20.67;;;;;;;8.56;100.00;102091.63;5094423;28;20430;-71
2021/12/12 09:27:25;;;;;;;59.85;21.75;;;;;;;8.60;100.00;102106.72;5092761;28;20027;-72
2021/12/12 09:30:05;;;;;;;54.83;21.27;;;;;;;8.63;100.00;102106.84;5096113;28;20059;-71
2021/12/12 09:32:54;;;;;;;52.08;19.80;;;;;;;8.69;100.00;102112.34;5101360;28;20024;-72
2021/12/12 09:35:34;;;;;;;48.55;20.08;;;;;;;8.73;100.00;102106.41;5098453;28;20523;-71
2021/12/12 09:38:12;;;;;;;44.90;20.00;;;;;;;8.71;100.00;102115.97;5097837;27;20035;-72
2021/12/12 09:41:10;;;;;;;48.35;20.13;;;;;;;8.69;100.00;102109.72;5095364;28;20498;-71
2021/12/12 09:43:54;;;;;;;51.60;20.95;;;;;;;8.74;100.00;102113.47;5107122;28;20518;-71
2021/12/12 09:46:59;;;;;;;47.88;20.92;;;;;;;8.74;100.00;102121.34;5108923;28;20038;-72
2021/12/12 09:52:33;;;;;;;38.03;17.50;;;;;;;8.81;100.00;102116.38;5106052;28;20399;-72
2021/12/12 09:55:10;;;;;;;36.85;16.63;;;;;;;8.76;100.00;102111.81;5084035;28;20118;-72
2021/12/12 09:57:42;;;;;;;40.22;16.92;;;;;;;8.78;100.00;102104.91;5106479;28;20028;-72
2021/12/12 10:00:33;;;;;;;33.28;15.25;;;;;;;8.79;100.00;102113.69;5099255;28;20032;-72
2021/12/12 10:03:21;;;;;;;35.75;16.67;;;;;;;8.81;100.00;102109.38;5101399;28;20391;-72
2021/12/12 10:06:15;;;;;;;35.95;16.75;;;;;;;8.86;100.00;102122.72;5101193;28;20027;-72
2021/12/12 10:09:14;;;;;;;34.10;15.38;;;;;;;8.87;100.00;102119.25;5099974;28;20032;-72
2021/12/12 10:11:59;;;;;;;31.75;15.82;;;;;;;8.82;100.00;102120.78;5087223;28;20404;-72
2021/12/12 10:14:52;;;;;;;33.45;15.52;;;;;;;8.82;100.00;102118.16;5106127;28;20031;-71
2021/12/12 10:17:34;;;;;;;33.22;15.38;;;;;;;8.77;100.00;102116.22;5098115;28;20106;-70
2021/12/12 10:20:11;;;;;;;28.38;14.13;;;;;;;8.80;100.00;102114.56;5105059;28;20081;-70
2021/12/12 10:23:15;;;;;;;33.83;16.13;;;;;;;8.78;100.00;102131.13;5099616;28;20023;-71
2021/12/12 10:26:07;;;;;;;34.83;15.80;;;;;;;8.78;100.00;102119.75;5097965;28;20041;-72
2021/12/12 10:28:49;;;;;;;38.95;17.00;;;;;;;8.82;100.00;102126.00;5101084;27;20016;-70
2021/12/12 10:31:28;;;;;;;39.45;17.25;;;;;;;8.83;100.00;102122.56;5082695;27;20521;-71
2021/12/12 10:34:08;;;;;;;38.70;15.82;;;;;;;8.82;100.00;102121.69;5098258;28;20042;-71
2021/12/12 10:36:56;;;;;;;48.10;17.85;;;;;;;8.86;100.00;102122.72;5097535;28;20055;-71
2021/12/12 10:40:07;;;;;;;38.70;17.42;;;;;;;8.91;100.00;102118.56;5099340;28;20109;-71
2021/12/12 10:42:43;;;;;;;43.45;17.88;;;;;;;8.91;100.00;102122.09;5093375;28;20047;-70
2021/12/12 10:45:15;;;;;;;40.92;16.52;;;;;;;8.97;100.00;102126.72;5105266;28;20055;-70
2021/12/12 10:47:43;;;;;;;43.20;17.48;;;;;;;8.98;100.00;102124.97;5102465;28;20031;-71
2021/12/12 10:50:19;;;;;;;41.85;16.73;;;;;;;8.96;100.00;102124.91;5088789;28;20038;-71
2021/12/12 10:52:59;;;;;;;40.17;17.35;;;;;;;9.00;100.00;102132.09;5095869;28;20031;-71
2021/12/12 10:55:42;;;;;;;38.13;16.98;;;;;;;9.05;100.00;102122.69;5100614;28;20067;-71
2021/12/12 10:58:19;;;;;;;38.83;17.83;;;;;;;9.04;100.00;102126.13;5098428;28;20024;-71
2021/12/12 11:00:52;;;;;;;38.00;17.27;;;;;;;9.10;100.00;102117.63;5107470;28;20036;-70
2021/12/12 11:03:23;;;;;;;40.07;16.80;;;;;;;9.14;100.00;102126.53;5098100;28;20031;-71
2021/12/12 11:06:11;;;;;;;40.05;16.67;;;;;;;9.11;100.00;102125.59;5110298;28;20360;-72
2021/12/12 11:08:59;;;;;;;36.97;15.07;;;;;;;9.20;100.00;102134.69;5079810;28;20127;-71
2021/12/12 11:12:10;;;;;;;34.05;15.45;;;;;;;9.18;100.00;102128.47;5093424;28;20028;-71
2021/12/12 11:14:41;;;;;;;34.38;15.70;;;;;;;9.20;100.00;102126.81;5094112;28;20210;-71
2021/12/12 11:17:17;;;;;;;36.00;15.70;;;;;;;9.20;100.00;102129.44;5082954;28;20046;-70
2021/12/12 11:19:55;;;;;;;40.67;15.63;;;;;;;9.21;100.00;102137.38;5102849;28;20028;-71
2021/12/12 11:22:23;;;;;;;32.30;14.82;;;;;;;9.27;100.00;102127.13;5104461;28;20099;-72
2021/12/12 11:25:06;;;;;;;32.67;14.13;;;;;;;9.24;100.00;102131.38;5100364;28;20118;-70
2021/12/12 11:27:56;;;;;;;27.65;13.30;;;;;;;9.27;100.00;102126.25;5075821;28;20035;-71
2021/12/12 11:30:47;;;;;;;27.75;13.43;;;;;;;9.32;100.00;102135.22;5103112;28;20032;-70
2021/12/12 11:33:15;;;;;;;33.83;13.43;;;;;;;9.33;100.00;102144.00;5107045;28;20028;-70
2021/12/12 11:35:45;;;;;;;25.63;13.05;;;;;;;9.36;100.00;102142.41;5103964;28;20059;-71
2021/12/12 11:38:22;;;;;;;24.58;11.55;;;;;;;9.40;100.00;102146.94;5098493;28;20077;-71
2021/12/12 11:40:52;;;;;;;27.45;12.10;;;;;;;9.41;100.00;102140.88;5084008;28;20032;-71
2021/12/12 11:43:32;;;;;;;22.30;11.32;;;;;;;9.47;100.00;102147.19;5085207;28;20408;-71
2021/12/12 11:46:03;;;;;;;27.13;12.23;;;;;;;9.47;100.00;102150.75;5105938;27;20027;-71
2021/12/12 11:49:11;;;;;;;24.30;10.90;;;;;;;9.52;100.00;102150.91;5084480;28;20056;-71
2021/12/12 11:51:50;;;;;;;23.02;11.15;;;;;;;9.55;100.00;102151.94;5091087;28;20035;-72
2021/12/12 11:54:25;;;;;;;20.48;9.48;;;;;;;9.57;100.00;102154.63;5104934;28;20027;-72